Aérodrome :
LOGIN :

S'inscrire | Disclaimer

   EN    FR    IT 

 










Légende :    VFR   VFR Marginal   IFR   IFR Intensif   IFR Très Intensif
Visi : 
Plafond : 
>= 8 km
>= 3000ft
5 à 8 km
1000 à 3000 ft
1500m à 5 km
500 à 1000 ft
800 à 1500m
200 à 500 ft
< 800m
< 200 ft
Symboles :   Orages  Brouillard  Fortes neiges  Fortes précipitations  Vent > 20 kt
SIGMETs :   Divers  Orages  Givrage  Turbulence  Onde Orograph.  Cendres Volcan.







- Altitude de l'aérodrome : 36 ft
- Code IATA : LTQ
- Voir les cartes d'approche


LFAT - Le Touquet

DERNIER METAR :
  • 220630Z AUTO 11007KT 7000 ///CB 15/13 Q1011 TEMPO 1300 TSRA BECMG 22010KT NSC

METARs EXPIRÉS :
  • 220600Z AUTO 12007KT 7000 ///CB 15/13 Q1011 TEMPO 1300 TSRA
  • 220530Z AUTO 12006KT 7000 ///CB 15/13 Q1011 TEMPO 1300 TSRA
  • 220500Z AUTO 13007KT 9000 ///CB 14/13 Q1011
  • 220430Z AUTO 15005KT 9999 ///TCU 14/13 Q1011
  • 220400Z AUTO 14005KT 9000 NSC 14/13 Q1011

TAF TAF LFAT
Valide du 22 à 06h jusqu'au 22 à 15h UTC


220500Z 2206/2215 14005KT CAVOK
TEMPO 2206/2208 1300 TSRA BKN060CB
BECMG 2208/2210 22010KT
ATIS : +33 3 21 06 62 84
Pas de NOTAMs connus pour ce terrain.



MET'MAP, la Météo Aéronautique d'un coup d'oeil ! - Copyright ORBIFLY Décembre 2007 - Disclaimer

ORBIFLY MET'MAP TEAM :

Programmation & Développement : Alexandra Zaïnal
Conception & Développement : Baudouin d'Aumeries
Co-Programmation & Développement : Marc-Olivier Méhu
Soutien technique & logistique : Manuel Goepfert

Contact : metmap@orbifly.com




SOURCES & CREDITS :

   NOAA